sensor_id;sensor_type;location;lat;lon;timestamp;P1;durP1;ratioP1;P2;durP2;ratioP2
15526;SDS011;7865;50.918;4.510;2023-02-28T00:00:39;5.53;;;3.83;;
15526;SDS011;7865;50.918;4.510;2023-02-28T00:05:41;8.07;;;4.07;;
15526;SDS011;7865;50.918;4.510;2023-02-28T00:10:42;10.20;;;3.80;;
15526;SDS011;7865;50.918;4.510;2023-02-28T00:15:45;5.30;;;4.27;;
15526;SDS011;7865;50.918;4.510;2023-02-28T00:20:47;7.73;;;4.30;;
15526;SDS011;7865;50.918;4.510;2023-02-28T00:25:49;11.23;;;4.10;;
15526;SDS011;7865;50.918;4.510;2023-02-28T00:30:52;5.43;;;4.07;;
15526;SDS011;7865;50.918;4.510;2023-02-28T00:36:01;7.57;;;3.93;;
15526;SDS011;7865;50.918;4.510;2023-02-28T00:41:05;12.40;;;4.63;;
15526;SDS011;7865;50.918;4.510;2023-02-28T00:46:08;5.87;;;4.27;;
15526;SDS011;7865;50.918;4.510;2023-02-28T00:51:10;5.17;;;4.07;;
15526;SDS011;7865;50.918;4.510;2023-02-28T00:56:12;6.50;;;5.17;;
15526;SDS011;7865;50.918;4.510;2023-02-28T01:01:15;5.30;;;4.80;;
15526;SDS011;7865;50.918;4.510;2023-02-28T01:06:18;8.43;;;4.53;;
15526;SDS011;7865;50.918;4.510;2023-02-28T01:11:20;7.70;;;3.83;;
15526;SDS011;7865;50.918;4.510;2023-02-28T01:16:22;10.10;;;4.60;;
15526;SDS011;7865;50.918;4.510;2023-02-28T01:21:24;8.97;;;4.67;;
15526;SDS011;7865;50.918;4.510;2023-02-28T01:26:26;9.57;;;4.63;;
15526;SDS011;7865;50.918;4.510;2023-02-28T01:31:28;7.73;;;4.97;;
15526;SDS011;7865;50.918;4.510;2023-02-28T01:36:30;11.00;;;4.80;;
15526;SDS011;7865;50.918;4.510;2023-02-28T01:41:33;7.80;;;5.33;;
15526;SDS011;7865;50.918;4.510;2023-02-28T01:46:35;11.03;;;4.73;;
15526;SDS011;7865;50.918;4.510;2023-02-28T01:51:42;10.33;;;5.50;;
15526;SDS011;7865;50.918;4.510;2023-02-28T01:56:53;10.00;;;5.63;;
15526;SDS011;7865;50.918;4.510;2023-02-28T02:01:59;14.37;;;5.90;;
15526;SDS011;7865;50.918;4.510;2023-02-28T02:07:01;8.70;;;5.37;;
15526;SDS011;7865;50.918;4.510;2023-02-28T02:12:08;8.73;;;5.90;;
15526;SDS011;7865;50.918;4.510;2023-02-28T02:17:34;8.13;;;4.83;;
15526;SDS011;7865;50.918;4.510;2023-02-28T02:33:32;11.50;;;6.63;;
15526;SDS011;7865;50.918;4.510;2023-02-28T02:38:47;8.37;;;5.73;;
15526;SDS011;7865;50.918;4.510;2023-02-28T02:43:57;9.90;;;6.13;;
15526;SDS011;7865;50.918;4.510;2023-02-28T02:49:06;10.33;;;6.23;;
15526;SDS011;7865;50.918;4.510;2023-02-28T02:54:13;11.27;;;6.43;;
15526;SDS011;7865;50.918;4.510;2023-02-28T02:59:20;12.03;;;7.07;;
15526;SDS011;7865;50.918;4.510;2023-02-28T03:04:26;9.93;;;5.97;;
15526;SDS011;7865;50.918;4.510;2023-02-28T03:09:33;7.33;;;5.77;;
15526;SDS011;7865;50.918;4.510;2023-02-28T03:14:46;8.20;;;5.40;;
15526;SDS011;7865;50.918;4.510;2023-02-28T03:20:13;8.10;;;5.73;;
15526;SDS011;7865;50.918;4.510;2023-02-28T03:25:39;10.97;;;5.90;;
15526;SDS011;7865;50.918;4.510;2023-02-28T03:36:02;11.67;;;6.10;;
15526;SDS011;7865;50.918;4.510;2023-02-28T03:46:33;10.73;;;6.00;;
15526;SDS011;7865;50.918;4.510;2023-02-28T03:51:39;14.13;;;6.20;;
15526;SDS011;7865;50.918;4.510;2023-02-28T03:56:48;10.73;;;6.20;;
15526;SDS011;7865;50.918;4.510;2023-02-28T04:02:06;7.30;;;5.60;;
15526;SDS011;7865;50.918;4.510;2023-02-28T04:07:09;10.40;;;5.97;;
15526;SDS011;7865;50.918;4.510;2023-02-28T04:12:12;14.67;;;6.43;;
15526;SDS011;7865;50.918;4.510;2023-02-28T04:17:15;9.90;;;6.27;;
15526;SDS011;7865;50.918;4.510;2023-02-28T04:22:17;13.90;;;7.50;;
15526;SDS011;7865;50.918;4.510;2023-02-28T04:27:20;10.77;;;6.40;;
15526;SDS011;7865;50.918;4.510;2023-02-28T04:32:22;14.70;;;7.30;;
15526;SDS011;7865;50.918;4.510;2023-02-28T04:37:24;10.30;;;6.80;;
15526;SDS011;7865;50.918;4.510;2023-02-28T04:42:30;13.93;;;8.37;;
15526;SDS011;7865;50.918;4.510;2023-02-28T04:47:37;10.20;;;6.73;;
15526;SDS011;7865;50.918;4.510;2023-02-28T04:52:38;18.43;;;7.67;;
15526;SDS011;7865;50.918;4.510;2023-02-28T04:57:40;10.97;;;6.37;;
15526;SDS011;7865;50.918;4.510;2023-02-28T05:02:43;9.90;;;6.63;;
15526;SDS011;7865;50.918;4.510;2023-02-28T05:07:45;9.90;;;6.70;;
15526;SDS011;7865;50.918;4.510;2023-02-28T05:12:47;11.83;;;7.50;;
15526;SDS011;7865;50.918;4.510;2023-02-28T05:17:49;12.40;;;7.00;;
15526;SDS011;7865;50.918;4.510;2023-02-28T05:22:52;11.07;;;7.43;;
15526;SDS011;7865;50.918;4.510;2023-02-28T05:27:54;12.73;;;7.47;;
15526;SDS011;7865;50.918;4.510;2023-02-28T05:32:56;12.00;;;8.00;;
15526;SDS011;7865;50.918;4.510;2023-02-28T05:37:57;9.73;;;7.50;;
15526;SDS011;7865;50.918;4.510;2023-02-28T05:42:59;9.63;;;7.53;;
15526;SDS011;7865;50.918;4.510;2023-02-28T05:48:02;15.37;;;7.73;;
15526;SDS011;7865;50.918;4.510;2023-02-28T05:53:04;12.10;;;7.53;;
15526;SDS011;7865;50.918;4.510;2023-02-28T05:58:05;14.53;;;8.03;;
15526;SDS011;7865;50.918;4.510;2023-02-28T06:03:07;14.53;;;7.80;;
15526;SDS011;7865;50.918;4.510;2023-02-28T06:08:09;13.63;;;7.03;;
15526;SDS011;7865;50.918;4.510;2023-02-28T06:13:12;14.47;;;7.53;;
15526;SDS011;7865;50.918;4.510;2023-02-28T06:18:14;17.20;;;8.33;;
15526;SDS011;7865;50.918;4.510;2023-02-28T06:23:16;15.83;;;8.43;;
15526;SDS011;7865;50.918;4.510;2023-02-28T06:28:18;13.70;;;8.30;;
15526;SDS011;7865;50.918;4.510;2023-02-28T06:33:21;14.90;;;7.70;;
15526;SDS011;7865;50.918;4.510;2023-02-28T06:38:23;13.60;;;7.57;;
15526;SDS011;7865;50.918;4.510;2023-02-28T06:43:25;14.53;;;7.73;;
15526;SDS011;7865;50.918;4.510;2023-02-28T06:48:30;13.03;;;7.87;;
15526;SDS011;7865;50.918;4.510;2023-02-28T06:53:32;9.60;;;7.23;;
15526;SDS011;7865;50.918;4.510;2023-02-28T06:58:34;13.33;;;7.37;;
15526;SDS011;7865;50.918;4.510;2023-02-28T07:03:37;12.53;;;7.97;;
15526;SDS011;7865;50.918;4.510;2023-02-28T07:08:39;14.30;;;7.27;;
15526;SDS011;7865;50.918;4.510;2023-02-28T07:13:42;10.73;;;7.77;;
15526;SDS011;7865;50.918;4.510;2023-02-28T07:18:44;15.63;;;8.73;;
15526;SDS011;7865;50.918;4.510;2023-02-28T07:23:46;16.97;;;7.67;;
15526;SDS011;7865;50.918;4.510;2023-02-28T07:28:48;10.00;;;6.93;;
15526;SDS011;7865;50.918;4.510;2023-02-28T07:33:51;13.67;;;7.47;;
15526;SDS011;7865;50.918;4.510;2023-02-28T07:38:55;10.07;;;6.30;;
15526;SDS011;7865;50.918;4.510;2023-02-28T07:43:57;8.53;;;6.93;;
15526;SDS011;7865;50.918;4.510;2023-02-28T07:49:01;12.23;;;6.50;;
15526;SDS011;7865;50.918;4.510;2023-02-28T07:54:04;11.43;;;6.03;;
15526;SDS011;7865;50.918;4.510;2023-02-28T07:59:06;9.73;;;6.37;;
15526;SDS011;7865;50.918;4.510;2023-02-28T08:04:08;9.10;;;5.83;;
15526;SDS011;7865;50.918;4.510;2023-02-28T08:09:10;11.73;;;6.13;;
15526;SDS011;7865;50.918;4.510;2023-02-28T08:14:12;8.80;;;5.37;;
15526;SDS011;7865;50.918;4.510;2023-02-28T08:19:15;7.10;;;5.20;;
15526;SDS011;7865;50.918;4.510;2023-02-28T08:24:17;5.93;;;4.43;;
15526;SDS011;7865;50.918;4.510;2023-02-28T08:29:19;6.10;;;4.43;;
15526;SDS011;7865;50.918;4.510;2023-02-28T08:34:21;5.73;;;3.50;;
15526;SDS011;7865;50.918;4.510;2023-02-28T08:39:24;4.83;;;3.57;;
15526;SDS011;7865;50.918;4.510;2023-02-28T08:44:26;5.17;;;3.27;;
15526;SDS011;7865;50.918;4.510;2023-02-28T08:49:28;4.63;;;2.87;;
15526;SDS011;7865;50.918;4.510;2023-02-28T08:54:30;4.90;;;3.00;;
15526;SDS011;7865;50.918;4.510;2023-02-28T08:59:34;5.00;;;3.00;;
15526;SDS011;7865;50.918;4.510;2023-02-28T09:04:36;6.43;;;3.20;;
15526;SDS011;7865;50.918;4.510;2023-02-28T09:09:38;7.40;;;4.00;;
15526;SDS011;7865;50.918;4.510;2023-02-28T09:14:54;4.83;;;3.17;;
15526;SDS011;7865;50.918;4.510;2023-02-28T09:19:56;4.63;;;2.70;;
15526;SDS011;7865;50.918;4.510;2023-02-28T09:24:59;3.80;;;2.90;;
15526;SDS011;7865;50.918;4.510;2023-02-28T09:30:00;2.80;;;2.53;;
15526;SDS011;7865;50.918;4.510;2023-02-28T09:35:02;3.20;;;2.63;;
15526;SDS011;7865;50.918;4.510;2023-02-28T09:40:05;3.67;;;2.73;;
15526;SDS011;7865;50.918;4.510;2023-02-28T09:45:19;5.17;;;3.13;;
15526;SDS011;7865;50.918;4.510;2023-02-28T09:55:36;4.20;;;2.20;;
15526;SDS011;7865;50.918;4.510;2023-02-28T10:00:49;4.53;;;2.47;;
15526;SDS011;7865;50.918;4.510;2023-02-28T10:06:11;4.67;;;2.53;;
15526;SDS011;7865;50.918;4.510;2023-02-28T10:11:18;4.03;;;2.70;;
15526;SDS011;7865;50.918;4.510;2023-02-28T10:16:25;3.93;;;1.97;;
15526;SDS011;7865;50.918;4.510;2023-02-28T10:21:37;3.67;;;1.90;;
15526;SDS011;7865;50.918;4.510;2023-02-28T10:26:44;2.10;;;1.90;;
15526;SDS011;7865;50.918;4.510;2023-02-28T10:31:48;3.87;;;1.97;;
15526;SDS011;7865;50.918;4.510;2023-02-28T10:36:50;2.23;;;1.50;;
15526;SDS011;7865;50.918;4.510;2023-02-28T10:41:52;4.63;;;2.07;;
15526;SDS011;7865;50.918;4.510;2023-02-28T10:46:55;2.50;;;1.90;;
15526;SDS011;7865;50.918;4.510;2023-02-28T10:51:59;2.27;;;1.70;;
15526;SDS011;7865;50.918;4.510;2023-02-28T10:57:23;2.07;;;1.50;;
15526;SDS011;7865;50.918;4.510;2023-02-28T11:02:36;2.27;;;1.63;;
15526;SDS011;7865;50.918;4.510;2023-02-28T11:07:44;1.83;;;1.67;;
15526;SDS011;7865;50.918;4.510;2023-02-28T11:12:54;4.37;;;2.20;;
15526;SDS011;7865;50.918;4.510;2023-02-28T11:23:14;1.93;;;1.77;;
15526;SDS011;7865;50.918;4.510;2023-02-28T11:28:26;1.90;;;1.70;;
15526;SDS011;7865;50.918;4.510;2023-02-28T11:33:41;2.63;;;1.97;;
15526;SDS011;7865;50.918;4.510;2023-02-28T11:38:56;2.57;;;1.93;;
15526;SDS011;7865;50.918;4.510;2023-02-28T11:44:15;4.17;;;1.97;;
15526;SDS011;7865;50.918;4.510;2023-02-28T11:49:49;1.90;;;1.57;;
15526;SDS011;7865;50.918;4.510;2023-02-28T11:55:11;3.00;;;2.20;;
15526;SDS011;7865;50.918;4.510;2023-02-28T12:00:29;2.73;;;2.47;;
15526;SDS011;7865;50.918;4.510;2023-02-28T12:05:46;2.43;;;1.77;;
15526;SDS011;7865;50.918;4.510;2023-02-28T12:10:53;2.77;;;1.90;;
15526;SDS011;7865;50.918;4.510;2023-02-28T12:16:12;3.53;;;1.90;;
15526;SDS011;7865;50.918;4.510;2023-02-28T12:21:45;2.53;;;1.90;;
15526;SDS011;7865;50.918;4.510;2023-02-28T12:27:08;2.17;;;1.97;;
15526;SDS011;7865;50.918;4.510;2023-02-28T12:32:19;2.07;;;1.80;;
15526;SDS011;7865;50.918;4.510;2023-02-28T12:37:29;2.30;;;1.97;;
15526;SDS011;7865;50.918;4.510;2023-02-28T12:42:45;1.90;;;1.60;;
15526;SDS011;7865;50.918;4.510;2023-02-28T12:48:00;3.17;;;1.90;;
15526;SDS011;7865;50.918;4.510;2023-02-28T12:53:08;5.10;;;2.07;;
15526;SDS011;7865;50.918;4.510;2023-02-28T13:09:16;2.37;;;1.93;;
15526;SDS011;7865;50.918;4.510;2023-02-28T13:24:41;2.07;;;1.87;;
15526;SDS011;7865;50.918;4.510;2023-02-28T13:29:46;4.20;;;1.97;;
15526;SDS011;7865;50.918;4.510;2023-02-28T13:55:32;2.77;;;2.13;;
15526;SDS011;7865;50.918;4.510;2023-02-28T14:05:43;3.83;;;1.90;;
15526;SDS011;7865;50.918;4.510;2023-02-28T14:10:45;2.50;;;2.30;;
15526;SDS011;7865;50.918;4.510;2023-02-28T14:15:55;2.40;;;2.13;;
15526;SDS011;7865;50.918;4.510;2023-02-28T14:21:01;3.93;;;2.30;;
15526;SDS011;7865;50.918;4.510;2023-02-28T14:36:33;5.97;;;2.03;;
15526;SDS011;7865;50.918;4.510;2023-02-28T14:41:39;2.60;;;2.20;;
15526;SDS011;7865;50.918;4.510;2023-02-28T14:46:43;2.73;;;2.47;;
15526;SDS011;7865;50.918;4.510;2023-02-28T14:51:47;2.97;;;2.37;;
15526;SDS011;7865;50.918;4.510;2023-02-28T14:56:51;3.90;;;3.20;;
15526;SDS011;7865;50.918;4.510;2023-02-28T15:02:13;3.93;;;2.70;;
15526;SDS011;7865;50.918;4.510;2023-02-28T15:07:16;3.87;;;2.60;;
15526;SDS011;7865;50.918;4.510;2023-02-28T15:12:18;3.37;;;2.60;;
15526;SDS011;7865;50.918;4.510;2023-02-28T15:17:22;4.20;;;2.30;;
15526;SDS011;7865;50.918;4.510;2023-02-28T15:22:35;4.87;;;3.00;;
15526;SDS011;7865;50.918;4.510;2023-02-28T15:27:42;2.87;;;2.67;;
15526;SDS011;7865;50.918;4.510;2023-02-28T15:38:21;3.37;;;2.67;;
15526;SDS011;7865;50.918;4.510;2023-02-28T15:43:29;3.00;;;2.37;;
15526;SDS011;7865;50.918;4.510;2023-02-28T15:48:36;4.53;;;2.37;;
15526;SDS011;7865;50.918;4.510;2023-02-28T15:53:48;3.23;;;2.40;;
15526;SDS011;7865;50.918;4.510;2023-02-28T15:58:55;3.00;;;2.70;;
15526;SDS011;7865;50.918;4.510;2023-02-28T16:04:00;2.90;;;2.57;;
15526;SDS011;7865;50.918;4.510;2023-02-28T16:09:05;3.83;;;2.67;;
15526;SDS011;7865;50.918;4.510;2023-02-28T16:14:43;4.20;;;2.27;;
15526;SDS011;7865;50.918;4.510;2023-02-28T16:19:40;5.77;;;2.67;;
15526;SDS011;7865;50.918;4.510;2023-02-28T16:24:42;2.93;;;2.37;;
15526;SDS011;7865;50.918;4.510;2023-02-28T16:29:44;3.33;;;2.97;;
15526;SDS011;7865;50.918;4.510;2023-02-28T16:34:47;3.13;;;2.60;;
15526;SDS011;7865;50.918;4.510;2023-02-28T16:39:49;3.53;;;2.60;;
15526;SDS011;7865;50.918;4.510;2023-02-28T16:44:52;3.30;;;2.70;;
15526;SDS011;7865;50.918;4.510;2023-02-28T16:49:55;3.80;;;2.37;;
15526;SDS011;7865;50.918;4.510;2023-02-28T16:54:57;3.03;;;2.70;;
15526;SDS011;7865;50.918;4.510;2023-02-28T17:00:02;4.07;;;2.57;;
15526;SDS011;7865;50.918;4.510;2023-02-28T17:05:06;2.73;;;2.30;;
15526;SDS011;7865;50.918;4.510;2023-02-28T17:10:29;3.07;;;2.60;;
15526;SDS011;7865;50.918;4.510;2023-02-28T17:15:31;2.83;;;2.53;;
15526;SDS011;7865;50.918;4.510;2023-02-28T17:20:33;4.30;;;2.97;;
15526;SDS011;7865;50.918;4.510;2023-02-28T17:25:35;3.87;;;3.00;;
15526;SDS011;7865;50.918;4.510;2023-02-28T17:30:38;3.53;;;3.23;;
15526;SDS011;7865;50.918;4.510;2023-02-28T17:35:41;3.73;;;2.50;;
15526;SDS011;7865;50.918;4.510;2023-02-28T17:40:43;5.60;;;3.30;;
15526;SDS011;7865;50.918;4.510;2023-02-28T17:45:46;5.07;;;3.33;;
15526;SDS011;7865;50.918;4.510;2023-02-28T17:50:48;5.57;;;3.77;;
15526;SDS011;7865;50.918;4.510;2023-02-28T17:55:50;6.87;;;4.63;;
15526;SDS011;7865;50.918;4.510;2023-02-28T18:00:51;6.50;;;4.30;;
15526;SDS011;7865;50.918;4.510;2023-02-28T18:05:55;7.30;;;4.80;;
15526;SDS011;7865;50.918;4.510;2023-02-28T18:10:58;10.73;;;5.17;;
15526;SDS011;7865;50.918;4.510;2023-02-28T18:16:00;8.57;;;5.20;;
15526;SDS011;7865;50.918;4.510;2023-02-28T18:21:03;7.87;;;4.40;;
15526;SDS011;7865;50.918;4.510;2023-02-28T18:26:07;7.13;;;5.60;;
15526;SDS011;7865;50.918;4.510;2023-02-28T18:31:10;11.00;;;5.23;;
15526;SDS011;7865;50.918;4.510;2023-02-28T18:36:13;8.60;;;5.40;;
15526;SDS011;7865;50.918;4.510;2023-02-28T18:41:17;9.73;;;5.67;;
15526;SDS011;7865;50.918;4.510;2023-02-28T18:46:23;6.60;;;5.20;;
15526;SDS011;7865;50.918;4.510;2023-02-28T18:51:26;16.47;;;10.57;;
15526;SDS011;7865;50.918;4.510;2023-02-28T18:56:29;7.87;;;6.10;;
15526;SDS011;7865;50.918;4.510;2023-02-28T19:01:31;18.70;;;11.20;;
15526;SDS011;7865;50.918;4.510;2023-02-28T19:06:34;9.10;;;4.97;;
15526;SDS011;7865;50.918;4.510;2023-02-28T19:11:38;14.93;;;5.63;;
15526;SDS011;7865;50.918;4.510;2023-02-28T19:16:40;9.77;;;6.57;;
15526;SDS011;7865;50.918;4.510;2023-02-28T19:21:42;9.00;;;6.27;;
15526;SDS011;7865;50.918;4.510;2023-02-28T19:26:44;10.00;;;4.87;;
15526;SDS011;7865;50.918;4.510;2023-02-28T19:31:46;9.00;;;5.60;;
15526;SDS011;7865;50.918;4.510;2023-02-28T19:36:49;13.23;;;6.53;;
15526;SDS011;7865;50.918;4.510;2023-02-28T19:41:51;8.73;;;6.23;;
15526;SDS011;7865;50.918;4.510;2023-02-28T19:46:53;10.23;;;6.53;;
15526;SDS011;7865;50.918;4.510;2023-02-28T19:51:54;9.10;;;5.93;;
15526;SDS011;7865;50.918;4.510;2023-02-28T19:56:57;11.37;;;5.77;;
15526;SDS011;7865;50.918;4.510;2023-02-28T20:01:59;11.17;;;6.80;;
15526;SDS011;7865;50.918;4.510;2023-02-28T20:07:01;12.43;;;7.43;;
15526;SDS011;7865;50.918;4.510;2023-02-28T20:12:03;8.87;;;6.70;;
15526;SDS011;7865;50.918;4.510;2023-02-28T20:17:09;9.73;;;6.13;;
15526;SDS011;7865;50.918;4.510;2023-02-28T20:22:11;10.33;;;6.17;;
15526;SDS011;7865;50.918;4.510;2023-02-28T20:27:13;8.10;;;5.50;;
15526;SDS011;7865;50.918;4.510;2023-02-28T20:32:16;11.10;;;6.60;;
15526;SDS011;7865;50.918;4.510;2023-02-28T20:37:18;11.87;;;6.90;;
15526;SDS011;7865;50.918;4.510;2023-02-28T20:42:20;12.33;;;6.60;;
15526;SDS011;7865;50.918;4.510;2023-02-28T20:47:22;13.27;;;7.43;;
15526;SDS011;7865;50.918;4.510;2023-02-28T20:52:23;14.10;;;8.33;;
15526;SDS011;7865;50.918;4.510;2023-02-28T20:57:27;10.73;;;7.20;;
15526;SDS011;7865;50.918;4.510;2023-02-28T21:02:30;10.93;;;6.20;;
15526;SDS011;7865;50.918;4.510;2023-02-28T21:07:32;10.83;;;7.43;;
15526;SDS011;7865;50.918;4.510;2023-02-28T21:12:33;13.60;;;10.23;;
15526;SDS011;7865;50.918;4.510;2023-02-28T21:17:35;16.00;;;10.00;;
15526;SDS011;7865;50.918;4.510;2023-02-28T21:22:37;15.73;;;9.53;;
15526;SDS011;7865;50.918;4.510;2023-02-28T21:27:39;14.63;;;9.10;;
15526;SDS011;7865;50.918;4.510;2023-02-28T21:32:42;16.07;;;8.43;;
15526;SDS011;7865;50.918;4.510;2023-02-28T21:37:43;14.00;;;8.90;;
15526;SDS011;7865;50.918;4.510;2023-02-28T21:42:46;21.40;;;9.30;;
15526;SDS011;7865;50.918;4.510;2023-02-28T21:47:48;15.03;;;9.50;;
15526;SDS011;7865;50.918;4.510;2023-02-28T21:52:50;18.77;;;8.90;;
15526;SDS011;7865;50.918;4.510;2023-02-28T21:57:52;19.30;;;10.23;;
15526;SDS011;7865;50.918;4.510;2023-02-28T22:02:54;24.07;;;11.33;;
15526;SDS011;7865;50.918;4.510;2023-02-28T22:07:56;32.63;;;13.97;;
15526;SDS011;7865;50.918;4.510;2023-02-28T22:12:58;15.27;;;8.43;;
15526;SDS011;7865;50.918;4.510;2023-02-28T22:18:02;12.60;;;8.23;;
15526;SDS011;7865;50.918;4.510;2023-02-28T22:23:04;13.33;;;7.90;;
15526;SDS011;7865;50.918;4.510;2023-02-28T22:28:06;11.57;;;7.60;;
15526;SDS011;7865;50.918;4.510;2023-02-28T22:33:08;12.10;;;6.53;;
15526;SDS011;7865;50.918;4.510;2023-02-28T22:38:10;9.80;;;6.63;;
15526;SDS011;7865;50.918;4.510;2023-02-28T22:43:12;10.63;;;7.20;;
15526;SDS011;7865;50.918;4.510;2023-02-28T22:48:13;10.87;;;6.67;;
15526;SDS011;7865;50.918;4.510;2023-02-28T22:53:15;12.80;;;6.67;;
15526;SDS011;7865;50.918;4.510;2023-02-28T22:58:18;10.93;;;7.20;;
15526;SDS011;7865;50.918;4.510;2023-02-28T23:03:21;10.27;;;6.57;;
15526;SDS011;7865;50.918;4.510;2023-02-28T23:08:24;10.27;;;6.47;;
15526;SDS011;7865;50.918;4.510;2023-02-28T23:13:26;14.10;;;7.20;;
15526;SDS011;7865;50.918;4.510;2023-02-28T23:18:28;9.50;;;6.90;;
15526;SDS011;7865;50.918;4.510;2023-02-28T23:23:30;13.43;;;6.73;;
15526;SDS011;7865;50.918;4.510;2023-02-28T23:28:32;16.73;;;7.67;;
15526;SDS011;7865;50.918;4.510;2023-02-28T23:33:34;9.90;;;6.80;;
15526;SDS011;7865;50.918;4.510;2023-02-28T23:38:37;11.93;;;6.93;;
15526;SDS011;7865;50.918;4.510;2023-02-28T23:43:40;10.77;;;6.73;;
15526;SDS011;7865;50.918;4.510;2023-02-28T23:48:42;10.23;;;6.63;;
15526;SDS011;7865;50.918;4.510;2023-02-28T23:53:45;12.00;;;7.13;;
15526;SDS011;7865;50.918;4.510;2023-02-28T23:58:48;13.27;;;6.17;;
